<?xml version="1.0" encoding="UTF-8" standalone="no" ?>
<gpx xmlns="http://www.topografix.com/GPX/1/1" xmlns:xsi="http://www.w3.org/2001/XMLSchema-instance" xsi:schemaLocation="http://www.topografix.com/GPX/1/1 http://www.topografix.com/GPX/1/1/gpx.xsd" version="1.1" creator="VisuGPX - https://www.visugpx.com">
  <metadata>
    <name>2019-04-11-46-Laburgade</name>
    <desc><![CDATA[Randonnée de 11km sans difficulté circuit des puits et des puits beaucoup de patrimoine à decouvrir]]></desc>
  </metadata>
  <trk>
    <name><![CDATA[9787991-Laburgade]]></name>
    <trkseg>
      <trkpt lat="44.38594" lon="1.54062">
        <ele>270</ele>
        <time>2019-04-07T18:28:36Z</time>
      </trkpt>
      <trkpt lat="44.38628" lon="1.54103">
        <ele>269</ele>
        <time>2019-04-07T18:29:36Z</time>
      </trkpt>
      <trkpt lat="44.38613" lon="1.54271">
        <ele>266</ele>
        <time>2019-04-07T18:30:36Z</time>
      </trkpt>
      <trkpt lat="44.38571" lon="1.54333">
        <ele>264</ele>
        <time>2019-04-07T18:31:36Z</time>
      </trkpt>
      <trkpt lat="44.38533" lon="1.54355">
        <ele>264</ele>
        <time>2019-04-07T18:32:36Z</time>
      </trkpt>
      <trkpt lat="44.38481" lon="1.54556">
        <ele>259</ele>
        <time>2019-04-07T18:33:36Z</time>
      </trkpt>
      <trkpt lat="44.38493" lon="1.54656">
        <ele>257</ele>
        <time>2019-04-07T18:34:36Z</time>
      </trkpt>
      <trkpt lat="44.38487" lon="1.54755">
        <ele>255</ele>
        <time>2019-04-07T18:35:36Z</time>
      </trkpt>
      <trkpt lat="44.38436" lon="1.54901">
        <ele>247</ele>
        <time>2019-04-07T18:36:36Z</time>
      </trkpt>
      <trkpt lat="44.38415" lon="1.55047">
        <ele>245</ele>
        <time>2019-04-07T18:37:36Z</time>
      </trkpt>
      <trkpt lat="44.38416" lon="1.55109">
        <ele>245</ele>
        <time>2019-04-07T18:38:36Z</time>
      </trkpt>
      <trkpt lat="44.38436" lon="1.5513">
        <ele>246</ele>
        <time>2019-04-07T18:39:36Z</time>
      </trkpt>
      <trkpt lat="44.38468" lon="1.55224">
        <ele>249</ele>
        <time>2019-04-07T18:40:36Z</time>
      </trkpt>
      <trkpt lat="44.38507" lon="1.55285">
        <ele>250</ele>
        <time>2019-04-07T18:41:36Z</time>
      </trkpt>
      <trkpt lat="44.38521" lon="1.55327">
        <ele>253</ele>
        <time>2019-04-07T18:42:36Z</time>
      </trkpt>
      <trkpt lat="44.38538" lon="1.55406">
        <ele>257</ele>
        <time>2019-04-07T18:43:36Z</time>
      </trkpt>
      <trkpt lat="44.38532" lon="1.55581">
        <ele>257</ele>
        <time>2019-04-07T18:44:36Z</time>
      </trkpt>
      <trkpt lat="44.38463" lon="1.55799">
        <ele>246</ele>
        <time>2019-04-07T18:45:36Z</time>
      </trkpt>
      <trkpt lat="44.38427" lon="1.55856">
        <ele>242</ele>
        <time>2019-04-07T18:46:36Z</time>
      </trkpt>
      <trkpt lat="44.38364" lon="1.55914">
        <ele>239</ele>
        <time>2019-04-07T18:47:36Z</time>
      </trkpt>
      <trkpt lat="44.38166" lon="1.56006">
        <ele>251</ele>
        <time>2019-04-07T18:48:36Z</time>
      </trkpt>
      <trkpt lat="44.3809" lon="1.56053">
        <ele>255</ele>
        <time>2019-04-07T18:49:36Z</time>
      </trkpt>
      <trkpt lat="44.38008" lon="1.56144">
        <ele>256</ele>
        <time>2019-04-07T18:50:36Z</time>
      </trkpt>
      <trkpt lat="44.37922" lon="1.56219">
        <ele>262</ele>
        <time>2019-04-07T18:51:36Z</time>
      </trkpt>
      <trkpt lat="44.37786" lon="1.56325">
        <ele>268</ele>
        <time>2019-04-07T18:52:36Z</time>
      </trkpt>
      <trkpt lat="44.37713" lon="1.56376">
        <ele>269</ele>
        <time>2019-04-07T18:53:36Z</time>
      </trkpt>
      <trkpt lat="44.37626" lon="1.56416">
        <ele>272</ele>
        <time>2019-04-07T18:54:36Z</time>
      </trkpt>
      <trkpt lat="44.37516" lon="1.56431">
        <ele>275</ele>
        <time>2019-04-07T18:55:36Z</time>
      </trkpt>
      <trkpt lat="44.37515" lon="1.56467">
        <ele>275</ele>
        <time>2019-04-07T18:56:36Z</time>
      </trkpt>
      <trkpt lat="44.37495" lon="1.56499">
        <ele>275</ele>
        <time>2019-04-07T18:57:36Z</time>
      </trkpt>
      <trkpt lat="44.37531" lon="1.56525">
        <ele>273</ele>
        <time>2019-04-07T18:58:36Z</time>
      </trkpt>
      <trkpt lat="44.37306" lon="1.56761">
        <ele>269</ele>
        <time>2019-04-07T18:59:36Z</time>
      </trkpt>
      <trkpt lat="44.37223" lon="1.56789">
        <ele>267</ele>
        <time>2019-04-07T19:00:36Z</time>
      </trkpt>
      <trkpt lat="44.37189" lon="1.5683">
        <ele>265</ele>
        <time>2019-04-07T19:01:36Z</time>
      </trkpt>
      <trkpt lat="44.37122" lon="1.56766">
        <ele>267</ele>
        <time>2019-04-07T19:02:36Z</time>
      </trkpt>
      <trkpt lat="44.37117" lon="1.5671">
        <ele>269</ele>
        <time>2019-04-07T19:03:36Z</time>
      </trkpt>
      <trkpt lat="44.36981" lon="1.56504">
        <ele>272</ele>
        <time>2019-04-07T19:04:36Z</time>
      </trkpt>
      <trkpt lat="44.36953" lon="1.56405">
        <ele>275</ele>
        <time>2019-04-07T19:05:36Z</time>
      </trkpt>
      <trkpt lat="44.36884" lon="1.56429">
        <ele>272</ele>
        <time>2019-04-07T19:06:36Z</time>
      </trkpt>
      <trkpt lat="44.36806" lon="1.56497">
        <ele>267</ele>
        <time>2019-04-07T19:07:36Z</time>
      </trkpt>
      <trkpt lat="44.36712" lon="1.56529">
        <ele>263</ele>
        <time>2019-04-07T19:08:36Z</time>
      </trkpt>
      <trkpt lat="44.36602" lon="1.56606">
        <ele>261</ele>
        <time>2019-04-07T19:09:36Z</time>
      </trkpt>
      <trkpt lat="44.36482" lon="1.56673">
        <ele>258</ele>
        <time>2019-04-07T19:10:36Z</time>
      </trkpt>
      <trkpt lat="44.36447" lon="1.56678">
        <ele>257</ele>
        <time>2019-04-07T19:11:36Z</time>
      </trkpt>
      <trkpt lat="44.36415" lon="1.56634">
        <ele>259</ele>
        <time>2019-04-07T19:12:36Z</time>
      </trkpt>
      <trkpt lat="44.3633" lon="1.56658">
        <ele>260</ele>
        <time>2019-04-07T19:13:36Z</time>
      </trkpt>
      <trkpt lat="44.36261" lon="1.56651">
        <ele>258</ele>
        <time>2019-04-07T19:14:36Z</time>
      </trkpt>
      <trkpt lat="44.36218" lon="1.5668">
        <ele>254</ele>
        <time>2019-04-07T19:15:36Z</time>
      </trkpt>
      <trkpt lat="44.36112" lon="1.56715">
        <ele>250</ele>
        <time>2019-04-07T19:16:36Z</time>
      </trkpt>
      <trkpt lat="44.36058" lon="1.56698">
        <ele>252</ele>
        <time>2019-04-07T19:17:36Z</time>
      </trkpt>
      <trkpt lat="44.36047" lon="1.56525">
        <ele>254</ele>
        <time>2019-04-07T19:18:36Z</time>
      </trkpt>
      <trkpt lat="44.36028" lon="1.56465">
        <ele>255</ele>
        <time>2019-04-07T19:19:36Z</time>
      </trkpt>
      <trkpt lat="44.36056" lon="1.56409">
        <ele>255</ele>
        <time>2019-04-07T19:20:36Z</time>
      </trkpt>
      <trkpt lat="44.35925" lon="1.5612">
        <ele>256</ele>
        <time>2019-04-07T19:21:36Z</time>
      </trkpt>
      <trkpt lat="44.35763" lon="1.56004">
        <ele>256</ele>
        <time>2019-04-07T19:22:36Z</time>
      </trkpt>
      <trkpt lat="44.35675" lon="1.55787">
        <ele>264</ele>
        <time>2019-04-07T19:23:36Z</time>
      </trkpt>
      <trkpt lat="44.35655" lon="1.55663">
        <ele>266</ele>
        <time>2019-04-07T19:24:36Z</time>
      </trkpt>
      <trkpt lat="44.35542" lon="1.55525">
        <ele>267</ele>
        <time>2019-04-07T19:25:36Z</time>
      </trkpt>
      <trkpt lat="44.35511" lon="1.55427">
        <ele>270</ele>
        <time>2019-04-07T19:26:36Z</time>
      </trkpt>
      <trkpt lat="44.35523" lon="1.55315">
        <ele>271</ele>
        <time>2019-04-07T19:27:36Z</time>
      </trkpt>
      <trkpt lat="44.35632" lon="1.54976">
        <ele>280</ele>
        <time>2019-04-07T19:28:36Z</time>
      </trkpt>
      <trkpt lat="44.35545" lon="1.54942">
        <ele>280</ele>
        <time>2019-04-07T19:29:36Z</time>
      </trkpt>
      <trkpt lat="44.35645" lon="1.54746">
        <ele>275</ele>
        <time>2019-04-07T19:30:36Z</time>
      </trkpt>
      <trkpt lat="44.3579" lon="1.5437">
        <ele>271</ele>
        <time>2019-04-07T19:31:36Z</time>
      </trkpt>
      <trkpt lat="44.35967" lon="1.54043">
        <ele>265</ele>
        <time>2019-04-07T19:32:36Z</time>
      </trkpt>
      <trkpt lat="44.36086" lon="1.53937">
        <ele>257</ele>
        <time>2019-04-07T19:33:36Z</time>
      </trkpt>
      <trkpt lat="44.36191" lon="1.53837">
        <ele>241</ele>
        <time>2019-04-07T19:34:36Z</time>
      </trkpt>
      <trkpt lat="44.3622" lon="1.53761">
        <ele>234</ele>
        <time>2019-04-07T19:35:36Z</time>
      </trkpt>
      <trkpt lat="44.36303" lon="1.53751">
        <ele>232</ele>
        <time>2019-04-07T19:36:36Z</time>
      </trkpt>
      <trkpt lat="44.36333" lon="1.53706">
        <ele>234</ele>
        <time>2019-04-07T19:37:36Z</time>
      </trkpt>
      <trkpt lat="44.36378" lon="1.5367">
        <ele>232</ele>
        <time>2019-04-07T19:38:36Z</time>
      </trkpt>
      <trkpt lat="44.36478" lon="1.53628">
        <ele>226</ele>
        <time>2019-04-07T19:39:36Z</time>
      </trkpt>
      <trkpt lat="44.36539" lon="1.53555">
        <ele>223</ele>
        <time>2019-04-07T19:40:36Z</time>
      </trkpt>
      <trkpt lat="44.36611" lon="1.53467">
        <ele>219</ele>
        <time>2019-04-07T19:41:36Z</time>
      </trkpt>
      <trkpt lat="44.36662" lon="1.53431">
        <ele>218</ele>
        <time>2019-04-07T19:42:36Z</time>
      </trkpt>
      <trkpt lat="44.36699" lon="1.53392">
        <ele>217</ele>
        <time>2019-04-07T19:43:36Z</time>
      </trkpt>
      <trkpt lat="44.3674" lon="1.53436">
        <ele>221</ele>
        <time>2019-04-07T19:44:36Z</time>
      </trkpt>
      <trkpt lat="44.36786" lon="1.53444">
        <ele>228</ele>
        <time>2019-04-07T19:45:36Z</time>
      </trkpt>
      <trkpt lat="44.36833" lon="1.53469">
        <ele>238</ele>
        <time>2019-04-07T19:46:36Z</time>
      </trkpt>
      <trkpt lat="44.36887" lon="1.53474">
        <ele>251</ele>
        <time>2019-04-07T19:47:36Z</time>
      </trkpt>
      <trkpt lat="44.36909" lon="1.53479">
        <ele>256</ele>
        <time>2019-04-07T19:48:36Z</time>
      </trkpt>
      <trkpt lat="44.36942" lon="1.53513">
        <ele>260</ele>
        <time>2019-04-07T19:49:36Z</time>
      </trkpt>
      <trkpt lat="44.37068" lon="1.53521">
        <ele>264</ele>
        <time>2019-04-07T19:50:36Z</time>
      </trkpt>
      <trkpt lat="44.37157" lon="1.5351">
        <ele>264</ele>
        <time>2019-04-07T19:51:36Z</time>
      </trkpt>
      <trkpt lat="44.37188" lon="1.5347">
        <ele>264</ele>
        <time>2019-04-07T19:52:36Z</time>
      </trkpt>
      <trkpt lat="44.37355" lon="1.53633">
        <ele>252</ele>
        <time>2019-04-07T19:53:36Z</time>
      </trkpt>
      <trkpt lat="44.37399" lon="1.53538">
        <ele>249</ele>
        <time>2019-04-07T19:54:36Z</time>
      </trkpt>
      <trkpt lat="44.37476" lon="1.53469">
        <ele>241</ele>
        <time>2019-04-07T19:55:36Z</time>
      </trkpt>
      <trkpt lat="44.3749" lon="1.53604">
        <ele>249</ele>
        <time>2019-04-07T19:56:36Z</time>
      </trkpt>
      <trkpt lat="44.37567" lon="1.53667">
        <ele>254</ele>
        <time>2019-04-07T19:57:36Z</time>
      </trkpt>
      <trkpt lat="44.37596" lon="1.53781">
        <ele>257</ele>
        <time>2019-04-07T19:58:36Z</time>
      </trkpt>
      <trkpt lat="44.3764" lon="1.53811">
        <ele>259</ele>
        <time>2019-04-07T19:59:36Z</time>
      </trkpt>
      <trkpt lat="44.37811" lon="1.53804">
        <ele>268</ele>
        <time>2019-04-07T20:00:36Z</time>
      </trkpt>
      <trkpt lat="44.37835" lon="1.53826">
        <ele>269</ele>
        <time>2019-04-07T20:01:36Z</time>
      </trkpt>
      <trkpt lat="44.37847" lon="1.53884">
        <ele>270</ele>
        <time>2019-04-07T20:02:36Z</time>
      </trkpt>
      <trkpt lat="44.37936" lon="1.54016">
        <ele>272</ele>
        <time>2019-04-07T20:03:36Z</time>
      </trkpt>
      <trkpt lat="44.38032" lon="1.53979">
        <ele>272</ele>
        <time>2019-04-07T20:04:36Z</time>
      </trkpt>
      <trkpt lat="44.38191" lon="1.54137">
        <ele>269</ele>
        <time>2019-04-07T20:05:36Z</time>
      </trkpt>
      <trkpt lat="44.3825" lon="1.54187">
        <ele>267</ele>
        <time>2019-04-07T20:06:36Z</time>
      </trkpt>
      <trkpt lat="44.38271" lon="1.54196">
        <ele>267</ele>
        <time>2019-04-07T20:07:36Z</time>
      </trkpt>
      <trkpt lat="44.38279" lon="1.54222">
        <ele>267</ele>
        <time>2019-04-07T20:08:36Z</time>
      </trkpt>
      <trkpt lat="44.38336" lon="1.54238">
        <ele>267</ele>
        <time>2019-04-07T20:09:36Z</time>
      </trkpt>
      <trkpt lat="44.38368" lon="1.54298">
        <ele>267</ele>
        <time>2019-04-07T20:10:36Z</time>
      </trkpt>
      <trkpt lat="44.38412" lon="1.54303">
        <ele>267</ele>
        <time>2019-04-07T20:11:36Z</time>
      </trkpt>
      <trkpt lat="44.38425" lon="1.54269">
        <ele>267</ele>
        <time>2019-04-07T20:12:36Z</time>
      </trkpt>
      <trkpt lat="44.38472" lon="1.54255">
        <ele>267</ele>
        <time>2019-04-07T20:13:36Z</time>
      </trkpt>
      <trkpt lat="44.38547" lon="1.54257">
        <ele>267</ele>
        <time>2019-04-07T20:14:36Z</time>
      </trkpt>
      <trkpt lat="44.38554" lon="1.54191">
        <ele>268</ele>
        <time>2019-04-07T20:15:36Z</time>
      </trkpt>
      <trkpt lat="44.38557" lon="1.54121">
        <ele>269</ele>
        <time>2019-04-07T20:16:36Z</time>
      </trkpt>
      <trkpt lat="44.38587" lon="1.54055">
        <ele>270</ele>
        <time>2019-04-07T20:17:36Z</time>
      </trkpt>
    </trkseg>
  </trk>
</gpx>